createdAt,value
2018-05-16T00:00:36.841Z,1008.18
2018-05-16T00:01:38.658Z,1008.17
2018-05-16T00:02:36.750Z,1008.23
2018-05-16T00:03:36.804Z,1008.22
2018-05-16T00:04:36.802Z,1008.19
2018-05-16T00:05:36.799Z,1008.24
2018-05-16T00:06:36.808Z,1008.19
2018-05-16T00:07:36.772Z,1008.17
2018-05-16T00:08:38.602Z,1008.18
2018-05-16T00:09:36.818Z,1008.14
2018-05-16T00:10:36.797Z,1008.10
2018-05-16T00:11:36.808Z,1008.12
2018-05-16T00:12:36.833Z,1008.10
2018-05-16T00:14:36.817Z,1008.17
2018-05-16T00:15:36.795Z,1008.11
2018-05-16T00:16:36.825Z,1008.17
2018-05-16T00:17:36.837Z,1008.24
2018-05-16T00:18:36.800Z,1008.25
2018-05-16T00:19:36.812Z,1008.24
2018-05-16T00:20:36.833Z,1008.19
2018-05-16T00:21:36.834Z,1008.18
2018-05-16T00:22:37.079Z,1008.20
2018-05-16T00:23:36.812Z,1008.25
2018-05-16T00:24:38.611Z,1008.17
2018-05-16T00:25:36.852Z,1008.25
2018-05-16T00:26:36.854Z,1008.25
2018-05-16T00:27:36.845Z,1008.26
2018-05-16T00:28:36.817Z,1008.24
2018-05-16T00:29:36.887Z,1008.27
2018-05-16T00:30:36.798Z,1008.22
2018-05-16T00:31:36.794Z,1008.22
2018-05-16T00:32:36.788Z,1008.22
2018-05-16T00:33:36.808Z,1008.22
2018-05-16T00:34:36.759Z,1008.19
2018-05-16T00:35:36.810Z,1008.24
2018-05-16T00:36:36.778Z,1008.23
2018-05-16T00:37:36.800Z,1008.29
2018-05-16T00:38:43.158Z,1008.31
2018-05-16T00:39:36.802Z,1008.32
2018-05-16T00:40:36.811Z,1008.30
2018-05-16T00:41:36.803Z,1008.30
2018-05-16T00:42:36.819Z,1008.30
2018-05-16T00:43:36.819Z,1008.34
2018-05-16T00:44:36.848Z,1008.31
2018-05-16T00:46:36.867Z,1008.37
2018-05-16T00:47:36.843Z,1008.37
2018-05-16T00:48:36.874Z,1008.42
2018-05-16T00:49:36.442Z,1008.45
2018-05-16T00:50:36.822Z,1008.44
2018-05-16T00:51:36.819Z,1008.41
2018-05-16T00:52:36.843Z,1008.41
2018-05-16T00:53:36.870Z,1008.42
2018-05-16T00:54:36.818Z,1008.47
2018-05-16T00:55:36.452Z,1008.50
2018-05-16T00:56:36.825Z,1008.51
2018-05-16T00:57:36.878Z,1008.53
2018-05-16T00:58:36.811Z,1008.51
2018-05-16T00:59:36.821Z,1008.52
2018-05-16T01:00:36.814Z,1008.55
2018-05-16T01:01:36.825Z,1008.52
2018-05-16T01:02:36.822Z,1008.48
2018-05-16T01:03:36.805Z,1008.49
2018-05-16T01:04:36.845Z,1008.45
2018-05-16T01:05:36.837Z,1008.48
2018-05-16T01:06:36.815Z,1008.45
2018-05-16T01:07:36.818Z,1008.46
2018-05-16T01:08:42.849Z,1008.41
2018-05-16T01:09:36.836Z,1008.37
2018-05-16T01:10:36.831Z,1008.36
2018-05-16T01:11:36.870Z,1008.32
2018-05-16T01:12:36.859Z,1008.33
2018-05-16T01:13:36.875Z,1008.32
2018-05-16T01:14:36.878Z,1008.24
2018-05-16T01:15:36.828Z,1008.16
2018-05-16T01:16:36.835Z,1008.11
2018-05-16T01:17:36.872Z,1008.11
2018-05-16T01:18:36.853Z,1008.04
2018-05-16T01:19:36.840Z,1008.01
2018-05-16T01:20:37.097Z,1008.05
2018-05-16T01:21:36.826Z,1008.00
2018-05-16T01:22:36.873Z,1007.98
2018-05-16T01:23:36.849Z,1007.97
2018-05-16T01:25:37.100Z,1008.04
2018-05-16T01:26:36.827Z,1008.06
2018-05-16T01:27:36.807Z,1008.10
2018-05-16T01:28:36.798Z,1008.12
2018-05-16T01:29:36.815Z,1008.12
2018-05-16T01:30:36.817Z,1008.13
2018-05-16T01:31:36.796Z,1008.13
2018-05-16T01:32:36.806Z,1008.13
2018-05-16T01:33:36.822Z,1008.05
2018-05-16T01:34:36.825Z,1008.07
2018-05-16T01:35:36.816Z,1008.07
2018-05-16T01:36:36.827Z,1008.04
2018-05-16T01:37:36.840Z,1008.03
2018-05-16T01:38:36.812Z,1008.06
2018-05-16T01:39:36.853Z,1007.99
2018-05-16T01:40:37.110Z,1008.02
2018-05-16T01:41:36.880Z,1008.00
2018-05-16T01:42:36.854Z,1008.02
2018-05-16T01:43:36.890Z,1007.99
2018-05-16T01:44:37.116Z,1007.97
2018-05-16T01:45:36.849Z,1007.96
2018-05-16T01:46:36.836Z,1007.94
2018-05-16T01:47:36.890Z,1007.94
2018-05-16T01:48:36.872Z,1007.95
2018-05-16T01:49:36.928Z,1007.95
2018-05-16T01:50:36.886Z,1007.93
2018-05-16T01:51:36.887Z,1007.90
2018-05-16T01:52:36.869Z,1007.90
2018-05-16T01:53:36.856Z,1007.86
2018-05-16T01:54:36.833Z,1007.88
2018-05-16T01:55:36.810Z,1007.86
2018-05-16T01:56:36.812Z,1007.89
2018-05-16T01:57:37.075Z,1007.87
2018-05-16T01:58:36.818Z,1007.85
2018-05-16T01:59:36.805Z,1007.87
2018-05-16T02:00:36.835Z,1007.89
2018-05-16T02:01:36.874Z,1007.85
2018-05-16T02:02:36.852Z,1007.88
2018-05-16T02:03:37.106Z,1007.90
2018-05-16T02:04:36.867Z,1007.93
2018-05-16T02:05:36.886Z,1007.94
2018-05-16T02:06:36.887Z,1007.89
2018-05-16T02:07:37.105Z,1007.95
2018-05-16T02:08:37.102Z,1007.94
2018-05-16T02:09:37.088Z,1007.94
2018-05-16T02:10:37.085Z,1007.93
2018-05-16T02:11:36.896Z,1007.96
2018-05-16T02:12:36.920Z,1007.93
2018-05-16T02:13:36.911Z,1007.95
2018-05-16T02:14:36.987Z,1007.95
2018-05-16T02:15:37.088Z,1007.94
2018-05-16T02:16:36.969Z,1007.96
2018-05-16T02:17:36.952Z,1008.00
2018-05-16T02:18:37.090Z,1008.02
2018-05-16T02:19:36.937Z,1008.02
2018-05-16T02:20:36.962Z,1008.06
2018-05-16T02:21:36.965Z,1008.04
2018-05-16T02:22:36.848Z,1008.05
2018-05-16T02:23:36.925Z,1008.02
2018-05-16T02:24:36.826Z,1008.05
2018-05-16T02:25:36.889Z,1008.05
2018-05-16T02:26:36.868Z,1008.08
2018-05-16T02:27:36.825Z,1008.07
2018-05-16T02:28:39.099Z,1008.07
2018-05-16T02:29:36.835Z,1008.08
2018-05-16T02:30:36.874Z,1008.08
2018-05-16T02:31:36.889Z,1008.10
2018-05-16T02:32:36.832Z,1008.09
2018-05-16T02:33:36.871Z,1008.14
2018-05-16T02:34:37.116Z,1008.07
2018-05-16T02:35:36.899Z,1008.08
2018-05-16T02:36:36.892Z,1008.08
2018-05-16T02:37:36.915Z,1008.08
2018-05-16T02:38:37.094Z,1008.08
2018-05-16T02:39:37.098Z,1008.11
2018-05-16T02:40:36.977Z,1008.10
2018-05-16T02:41:36.921Z,1008.11
2018-05-16T02:42:36.933Z,1008.09
2018-05-16T02:43:36.895Z,1008.09
2018-05-16T02:44:36.940Z,1008.14
2018-05-16T02:45:36.980Z,1008.11
2018-05-16T02:46:36.972Z,1008.10
2018-05-16T02:47:37.284Z,1008.10
2018-05-16T02:48:37.067Z,1008.09
2018-05-16T02:49:37.181Z,1008.11
2018-05-16T02:50:37.128Z,1008.12
2018-05-16T02:51:36.839Z,1008.13
2018-05-16T02:52:36.900Z,1008.17
2018-05-16T02:53:36.930Z,1008.16
2018-05-16T02:54:36.948Z,1008.18
2018-05-16T02:55:36.943Z,1008.20
2018-05-16T02:56:36.959Z,1008.20
2018-05-16T02:57:36.995Z,1008.16
2018-05-16T02:58:36.969Z,1008.16
2018-05-16T02:59:36.979Z,1008.19
2018-05-16T03:00:38.754Z,1008.21
2018-05-16T03:01:36.974Z,1008.19
2018-05-16T03:02:36.980Z,1008.23
2018-05-16T03:03:38.753Z,1008.24
2018-05-16T03:04:36.978Z,1008.24
2018-05-16T03:05:36.974Z,1008.23
2018-05-16T03:06:36.680Z,1008.24
2018-05-16T03:07:37.012Z,1008.20
2018-05-16T03:08:37.028Z,1008.21
2018-05-16T03:09:37.034Z,1008.25
2018-05-16T03:10:36.976Z,1008.20
2018-05-16T03:11:37.006Z,1008.25
2018-05-16T03:12:37.036Z,1008.27
2018-05-16T03:13:42.284Z,1008.30
2018-05-16T03:14:37.000Z,1008.28
2018-05-16T03:15:37.044Z,1008.34
2018-05-16T03:16:37.032Z,1008.33
2018-05-16T03:17:37.060Z,1008.34
2018-05-16T03:18:37.195Z,1008.36
2018-05-16T03:19:36.906Z,1008.28
2018-05-16T03:20:36.881Z,1008.29
2018-05-16T03:21:36.899Z,1008.33
2018-05-16T03:22:36.971Z,1008.31
2018-05-16T03:23:36.918Z,1008.32
2018-05-16T03:24:36.972Z,1008.33
2018-05-16T03:25:36.906Z,1008.37
2018-05-16T03:26:36.961Z,1008.38
2018-05-16T03:27:36.953Z,1008.40
2018-05-16T03:28:36.979Z,1008.34
2018-05-16T03:29:36.972Z,1008.37
2018-05-16T03:30:36.940Z,1008.41
2018-05-16T03:31:36.977Z,1008.38
2018-05-16T03:32:36.973Z,1008.41
2018-05-16T03:33:37.050Z,1008.40
2018-05-16T03:34:36.983Z,1008.43
2018-05-16T03:35:36.999Z,1008.42
2018-05-16T03:36:36.965Z,1008.39
2018-05-16T03:37:37.109Z,1008.38
2018-05-16T03:38:37.011Z,1008.35
2018-05-16T03:39:36.997Z,1008.40
2018-05-16T03:40:37.059Z,1008.39
2018-05-16T03:41:37.012Z,1008.39
2018-05-16T03:42:37.085Z,1008.42
2018-05-16T03:43:36.982Z,1008.40
2018-05-16T03:44:37.127Z,1008.40
2018-05-16T03:45:37.027Z,1008.43
2018-05-16T03:46:37.069Z,1008.41
2018-05-16T03:47:37.235Z,1008.38
2018-05-16T03:48:36.904Z,1008.38
2018-05-16T03:49:36.915Z,1008.41
2018-05-16T03:50:36.912Z,1008.39
2018-05-16T03:51:36.983Z,1008.42
2018-05-16T03:52:36.963Z,1008.39
2018-05-16T03:53:36.907Z,1008.45
2018-05-16T03:54:36.913Z,1008.41
2018-05-16T03:55:36.913Z,1008.42
2018-05-16T03:56:36.974Z,1008.45
2018-05-16T03:57:36.974Z,1008.45
2018-05-16T03:58:36.944Z,1008.47
2018-05-16T03:59:37.064Z,1008.44
2018-05-16T04:00:37.138Z,1008.41
2018-05-16T04:01:37.069Z,1008.42
2018-05-16T04:02:37.055Z,1008.46
2018-05-16T04:03:37.000Z,1008.44
2018-05-16T04:04:37.019Z,1008.47
2018-05-16T04:05:37.058Z,1008.49
2018-05-16T04:06:37.122Z,1008.49
2018-05-16T04:07:37.065Z,1008.49
2018-05-16T04:08:36.905Z,1008.50
2018-05-16T04:09:38.794Z,1008.51
2018-05-16T04:10:37.055Z,1008.47
2018-05-16T04:11:36.997Z,1008.53
2018-05-16T04:12:36.966Z,1008.51
2018-05-16T04:13:37.108Z,1008.52
2018-05-16T04:14:36.331Z,1008.56
2018-05-16T04:15:37.046Z,1008.54
2018-05-16T04:16:37.062Z,1008.50
2018-05-16T04:17:37.045Z,1008.44
2018-05-16T04:18:36.971Z,1008.48
2018-05-16T04:19:37.058Z,1008.46
2018-05-16T04:20:37.057Z,1008.46
2018-05-16T04:21:37.068Z,1008.48
2018-05-16T04:22:37.078Z,1008.46
2018-05-16T04:23:36.994Z,1008.46
2018-05-16T04:24:37.522Z,1008.51
2018-05-16T04:25:37.175Z,1008.54
2018-05-16T04:26:37.122Z,1008.56
2018-05-16T04:27:37.096Z,1008.60
2018-05-16T04:28:37.358Z,1008.56
2018-05-16T04:29:37.488Z,1008.57
2018-05-16T04:30:36.760Z,1008.58
2018-05-16T04:31:37.148Z,1008.58
2018-05-16T04:32:39.001Z,1008.55
2018-05-16T04:33:37.169Z,1008.58
2018-05-16T04:34:37.151Z,1008.59
2018-05-16T04:35:39.036Z,1008.56
2018-05-16T04:36:38.953Z,1008.59
2018-05-16T04:37:38.966Z,1008.62
2018-05-16T04:38:37.131Z,1008.63
2018-05-16T04:39:37.064Z,1008.68
2018-05-16T04:40:37.667Z,1008.70
2018-05-16T04:41:36.966Z,1008.68
2018-05-16T04:42:36.971Z,1008.69
2018-05-16T04:43:37.007Z,1008.64
2018-05-16T04:44:37.006Z,1008.63
2018-05-16T04:45:38.228Z,1008.61
2018-05-16T04:46:37.150Z,1008.62
2018-05-16T04:47:37.135Z,1008.63
2018-05-16T04:48:37.567Z,1008.62
2018-05-16T04:49:37.116Z,1008.65
2018-05-16T04:50:37.473Z,1008.64
2018-05-16T04:51:37.134Z,1008.62
2018-05-16T04:52:37.150Z,1008.62
2018-05-16T04:53:37.112Z,1008.64
2018-05-16T04:54:37.154Z,1008.63
2018-05-16T04:55:37.419Z,1008.69
2018-05-16T04:56:37.136Z,1008.69
2018-05-16T04:57:37.459Z,1008.72
2018-05-16T04:58:37.440Z,1008.70
2018-05-16T04:59:37.449Z,1008.61
2018-05-16T05:00:37.429Z,1008.62
2018-05-16T05:02:01.983Z,1008.64
2018-05-16T05:02:37.667Z,1008.57
2018-05-16T05:03:37.644Z,1008.58
2018-05-16T05:04:37.433Z,1008.60
2018-05-16T05:05:37.688Z,1008.62
2018-05-16T05:06:37.455Z,1008.63
2018-05-16T05:07:37.690Z,1008.63
2018-05-16T05:08:37.312Z,1008.64
2018-05-16T05:09:37.379Z,1008.63
2018-05-16T05:10:37.369Z,1008.58
2018-05-16T05:11:36.716Z,1008.60
2018-05-16T05:12:36.733Z,1008.62
2018-05-16T05:13:36.740Z,1008.65
2018-05-16T05:14:36.737Z,1008.65
2018-05-16T05:15:36.691Z,1008.67
2018-05-16T05:16:37.373Z,1008.71
2018-05-16T05:17:37.435Z,1008.75
2018-05-16T05:18:36.868Z,1008.75
2018-05-16T05:19:36.791Z,1008.75
2018-05-16T05:20:35.833Z,1008.73
2018-05-16T05:21:37.192Z,1008.79
2018-05-16T05:22:36.988Z,1008.72
2018-05-16T05:23:37.683Z,1008.72
2018-05-16T05:24:37.202Z,1008.71
2018-05-16T05:25:36.423Z,1008.70
2018-05-16T05:26:36.668Z,1008.67
2018-05-16T05:27:36.664Z,1008.67
2018-05-16T05:28:36.447Z,1008.69
2018-05-16T05:29:36.813Z,1008.76
2018-05-16T05:30:36.823Z,1008.77
2018-05-16T05:31:36.442Z,1008.81
2018-05-16T05:32:36.846Z,1008.78
2018-05-16T05:33:36.859Z,1008.79
2018-05-16T05:34:36.881Z,1008.76
2018-05-16T05:35:36.839Z,1008.76
2018-05-16T05:36:36.992Z,1008.79
2018-05-16T05:37:36.888Z,1008.84
2018-05-16T05:38:36.885Z,1008.84
2018-05-16T05:39:38.677Z,1008.90
2018-05-16T05:40:36.770Z,1008.91
2018-05-16T05:41:37.381Z,1008.90
2018-05-16T05:42:36.831Z,1008.92
2018-05-16T05:43:37.383Z,1008.94
2018-05-16T05:44:37.694Z,1008.94
2018-05-16T05:45:37.440Z,1008.95
2018-05-16T05:46:37.701Z,1008.96
2018-05-16T05:47:37.657Z,1008.96
2018-05-16T05:48:37.700Z,1009.01
2018-05-16T05:49:37.454Z,1009.00
2018-05-16T05:50:37.390Z,1009.05
2018-05-16T05:51:37.434Z,1009.00
2018-05-16T05:52:37.452Z,1009.02
2018-05-16T05:53:37.445Z,1009.04
2018-05-16T05:54:37.448Z,1009.02
2018-05-16T05:55:37.702Z,1009.02
2018-05-16T05:56:37.708Z,1009.02
2018-05-16T05:57:37.392Z,1009.03
2018-05-16T05:58:37.433Z,1009.08
2018-05-16T05:59:37.395Z,1009.06
2018-05-16T06:00:37.205Z,1009.04
2018-05-16T06:01:37.422Z,1009.10
2018-05-16T06:02:37.705Z,1009.03
2018-05-16T06:03:37.709Z,1009.06
2018-05-16T06:04:37.418Z,1009.05
2018-05-16T06:05:37.705Z,1009.05
2018-05-16T06:06:37.482Z,1009.05
2018-05-16T06:07:37.457Z,1008.99
2018-05-16T06:08:37.711Z,1008.99
2018-05-16T06:09:37.705Z,1009.01
2018-05-16T06:10:37.705Z,1008.92
2018-05-16T06:11:40.058Z,1008.92
2018-05-16T06:12:39.506Z,1008.95
2018-05-16T06:13:37.709Z,1008.94
2018-05-16T06:14:37.709Z,1008.94
2018-05-16T06:15:37.704Z,1008.91
2018-05-16T06:16:37.488Z,1008.93
2018-05-16T06:17:37.751Z,1008.94
2018-05-16T06:18:37.705Z,1008.98
2018-05-16T06:19:37.528Z,1009.03
2018-05-16T06:20:37.478Z,1009.09
2018-05-16T06:21:37.716Z,1009.07
2018-05-16T06:22:38.225Z,1009.11
2018-05-16T06:23:37.494Z,1009.13
2018-05-16T06:24:37.212Z,1009.15
2018-05-16T06:25:37.719Z,1009.17
2018-05-16T06:26:37.705Z,1009.20
2018-05-16T06:27:39.192Z,1009.17
2018-05-16T06:28:40.010Z,1009.22
2018-05-16T06:29:36.904Z,1009.19
2018-05-16T06:30:37.711Z,1009.18
2018-05-16T06:31:37.208Z,1009.25
2018-05-16T06:32:37.604Z,1009.23
2018-05-16T06:33:37.715Z,1009.21
2018-05-16T06:34:37.856Z,1009.20
2018-05-16T06:35:37.517Z,1009.21
2018-05-16T06:36:38.019Z,1009.20
2018-05-16T06:37:37.764Z,1009.23
2018-05-16T06:38:37.758Z,1009.17
2018-05-16T06:39:44.152Z,1009.24
2018-05-16T06:40:43.440Z,1009.21
2018-05-16T06:41:37.420Z,1009.21
2018-05-16T06:42:37.395Z,1009.17
2018-05-16T06:43:37.472Z,1009.17
2018-05-16T06:44:37.435Z,1009.24
2018-05-16T06:45:36.991Z,1009.23
2018-05-16T06:46:37.703Z,1009.24
2018-05-16T06:47:37.424Z,1009.26
2018-05-16T06:48:37.724Z,1009.20
2018-05-16T06:49:37.472Z,1009.22
2018-05-16T06:50:37.479Z,1009.19
2018-05-16T06:51:37.454Z,1009.22
2018-05-16T06:52:37.725Z,1009.20
2018-05-16T06:53:38.172Z,1009.19
2018-05-16T06:54:51.866Z,1009.19
2018-05-16T06:55:37.114Z,1009.19
2018-05-16T06:56:38.077Z,1009.20
2018-05-16T06:57:39.096Z,1009.20
2018-05-16T06:58:38.020Z,1009.20
2018-05-16T06:59:37.527Z,1009.26
2018-05-16T07:00:37.537Z,1009.27
2018-05-16T07:01:37.769Z,1009.27
2018-05-16T07:02:37.556Z,1009.33
2018-05-16T07:03:37.903Z,1009.30
2018-05-16T07:04:38.012Z,1009.27
2018-05-16T07:05:37.081Z,1009.26
2018-05-16T07:06:37.525Z,1009.25
2018-05-16T07:07:37.460Z,1009.26
2018-05-16T07:08:37.775Z,1009.28
2018-05-16T07:09:37.523Z,1009.29
2018-05-16T07:10:37.524Z,1009.32
2018-05-16T07:11:37.523Z,1009.32
2018-05-16T07:12:38.192Z,1009.31
2018-05-16T07:13:37.743Z,1009.32
2018-05-16T07:14:37.499Z,1009.35
2018-05-16T07:15:37.544Z,1009.34
2018-05-16T07:16:37.739Z,1009.38
2018-05-16T07:17:37.537Z,1009.43
2018-05-16T07:18:37.547Z,1009.52
2018-05-16T07:19:37.551Z,1009.56
2018-05-16T07:20:37.739Z,1009.57
2018-05-16T07:21:38.016Z,1009.62
2018-05-16T07:22:37.494Z,1009.63
2018-05-16T07:23:37.483Z,1009.63
2018-05-16T07:24:39.273Z,1009.61
2018-05-16T07:25:37.496Z,1009.61
2018-05-16T07:26:37.740Z,1009.57
2018-05-16T07:27:37.466Z,1009.59
2018-05-16T07:28:37.485Z,1009.59
2018-05-16T07:29:37.578Z,1009.56
2018-05-16T07:30:37.743Z,1009.59
2018-05-16T07:31:37.730Z,1009.54
2018-05-16T07:32:37.483Z,1009.55
2018-05-16T07:33:37.779Z,1009.61
2018-05-16T07:34:37.542Z,1009.63
2018-05-16T07:35:37.020Z,1009.65
2018-05-16T07:36:37.054Z,1009.67
2018-05-16T07:37:39.368Z,1009.61
2018-05-16T07:38:37.564Z,1009.63
2018-05-16T07:39:37.756Z,1009.64
2018-05-16T07:40:38.129Z,1009.69
2018-05-16T07:41:38.067Z,1009.73
2018-05-16T07:42:37.593Z,1009.74
2018-05-16T07:43:37.571Z,1009.74
2018-05-16T07:44:38.022Z,1009.75
2018-05-16T07:45:37.446Z,1009.75
2018-05-16T07:46:38.044Z,1009.75
2018-05-16T07:47:37.544Z,1009.78
2018-05-16T07:48:38.027Z,1009.78
2018-05-16T07:49:37.463Z,1009.79
2018-05-16T07:50:37.747Z,1009.81
2018-05-16T07:51:37.746Z,1009.80
2018-05-16T07:52:38.322Z,1009.84
2018-05-16T07:53:38.051Z,1009.86
2018-05-16T07:54:37.749Z,1009.89
2018-05-16T07:55:37.486Z,1009.93
2018-05-16T07:56:38.048Z,1009.97
2018-05-16T07:57:39.896Z,1009.98
2018-05-16T07:58:37.718Z,1010.02
2018-05-16T07:59:37.472Z,1010.04
2018-05-16T08:00:37.506Z,1010.06
2018-05-16T08:01:37.528Z,1010.07
2018-05-16T08:02:37.541Z,1010.06
2018-05-16T08:03:37.801Z,1010.06
2018-05-16T08:04:37.789Z,1010.10
2018-05-16T08:05:37.753Z,1010.09
2018-05-16T08:06:37.477Z,1010.07
2018-05-16T08:07:37.533Z,1010.09
2018-05-16T08:08:37.620Z,1010.09
2018-05-16T08:09:37.763Z,1010.08
2018-05-16T08:10:37.780Z,1010.11
2018-05-16T08:11:37.730Z,1010.14
2018-05-16T08:12:37.795Z,1010.09
2018-05-16T08:13:37.613Z,1010.13
2018-05-16T08:14:37.771Z,1010.09
2018-05-16T08:15:37.527Z,1010.09
2018-05-16T08:16:38.386Z,1010.09
2018-05-16T08:17:38.225Z,1010.09
2018-05-16T08:18:38.154Z,1010.04
2018-05-16T08:19:37.561Z,1010.02
2018-05-16T08:20:37.753Z,1009.98
2018-05-16T08:21:37.888Z,1010.03
2018-05-16T08:22:37.757Z,1010.00
2018-05-16T08:23:37.800Z,1009.99
2018-05-16T08:24:37.789Z,1010.01
2018-05-16T08:25:37.807Z,1009.96
2018-05-16T08:26:37.487Z,1009.97
2018-05-16T08:27:37.720Z,1009.94
2018-05-16T08:28:38.061Z,1009.94
2018-05-16T08:29:37.521Z,1009.92
2018-05-16T08:30:37.769Z,1009.93
2018-05-16T08:31:37.527Z,1009.93
2018-05-16T08:32:40.039Z,1009.93
2018-05-16T08:33:38.047Z,1009.98
2018-05-16T08:34:37.988Z,1009.95
2018-05-16T08:35:37.591Z,1009.94
2018-05-16T08:36:37.591Z,1009.94
2018-05-16T08:37:37.721Z,1010.00
2018-05-16T08:38:37.813Z,1009.97
2018-05-16T08:39:38.213Z,1009.99
2018-05-16T08:40:37.765Z,1010.03
2018-05-16T08:41:37.775Z,1010.04
2018-05-16T08:42:38.954Z,1010.00
2018-05-16T08:43:38.079Z,1009.97
2018-05-16T08:44:38.416Z,1009.96
2018-05-16T08:45:37.771Z,1009.96
2018-05-16T08:46:37.732Z,1009.95
2018-05-16T08:47:37.762Z,1009.90
2018-05-16T08:48:37.748Z,1009.94
2018-05-16T08:49:37.781Z,1009.94
2018-05-16T08:50:38.179Z,1009.94
2018-05-16T08:51:37.650Z,1009.92
2018-05-16T08:52:40.157Z,1009.90
2018-05-16T08:53:38.330Z,1009.90
2018-05-16T08:54:37.463Z,1009.90
2018-05-16T08:55:37.828Z,1009.91
2018-05-16T08:56:37.541Z,1009.90
2018-05-16T08:57:37.588Z,1009.94
2018-05-16T08:58:38.294Z,1009.94
2018-05-16T08:59:37.793Z,1009.96
2018-05-16T09:00:37.779Z,1009.92
2018-05-16T09:01:38.234Z,1009.85
2018-05-16T09:02:37.591Z,1009.84
2018-05-16T09:03:37.636Z,1009.82
2018-05-16T09:04:37.751Z,1009.81
2018-05-16T09:05:37.315Z,1009.85
2018-05-16T09:06:37.572Z,1009.86
2018-05-16T09:07:38.504Z,1009.86
2018-05-16T09:08:38.120Z,1009.90
2018-05-16T09:09:38.058Z,1009.87
2018-05-16T09:10:37.778Z,1009.90
2018-05-16T09:12:38.122Z,1009.87
2018-05-16T09:13:37.983Z,1009.88
2018-05-16T09:14:37.964Z,1009.86
2018-05-16T09:15:37.814Z,1009.84
2018-05-16T09:16:38.056Z,1009.90
2018-05-16T09:17:37.270Z,1009.93
2018-05-16T09:18:37.666Z,1009.86
2018-05-16T09:19:37.906Z,1009.84
2018-05-16T09:20:37.819Z,1009.88
2018-05-16T09:21:37.792Z,1009.85
2018-05-16T09:22:38.123Z,1009.83
2018-05-16T09:23:37.737Z,1009.85
2018-05-16T09:24:38.288Z,1009.82
2018-05-16T09:25:38.240Z,1009.83
2018-05-16T09:26:37.825Z,1009.81
2018-05-16T09:27:37.361Z,1009.79
2018-05-16T09:28:37.768Z,1009.81
2018-05-16T09:29:37.768Z,1009.84
2018-05-16T09:30:38.249Z,1009.81
2018-05-16T09:31:37.749Z,1009.82
2018-05-16T09:32:38.111Z,1009.78
2018-05-16T09:33:37.971Z,1009.76
2018-05-16T09:34:38.357Z,1009.68
2018-05-16T09:35:38.212Z,1009.68
2018-05-16T09:36:38.321Z,1009.70
2018-05-16T09:37:38.282Z,1009.76
2018-05-16T09:38:38.349Z,1009.75
2018-05-16T09:39:38.663Z,1009.81
2018-05-16T09:40:37.790Z,1009.82
2018-05-16T09:41:38.290Z,1009.89
2018-05-16T09:42:38.229Z,1009.89
2018-05-16T09:43:38.290Z,1009.87
2018-05-16T09:44:38.314Z,1009.86
2018-05-16T09:45:37.377Z,1009.85
2018-05-16T09:46:37.427Z,1009.85
2018-05-16T09:47:37.429Z,1009.89
2018-05-16T09:48:38.088Z,1009.87
2018-05-16T09:49:38.333Z,1009.86
2018-05-16T09:50:40.110Z,1009.85
2018-05-16T09:51:38.593Z,1009.87
2018-05-16T09:52:37.840Z,1009.84
2018-05-16T09:53:39.050Z,1009.82
2018-05-16T09:54:37.789Z,1009.82
2018-05-16T09:55:38.095Z,1009.83
2018-05-16T09:56:38.083Z,1009.84
2018-05-16T09:57:38.120Z,1009.86
2018-05-16T09:58:38.106Z,1009.88
2018-05-16T09:59:38.764Z,1009.90
2018-05-16T10:00:38.352Z,1009.89
2018-05-16T10:01:38.245Z,1009.91
2018-05-16T10:02:38.142Z,1009.92
2018-05-16T10:03:38.800Z,1009.96
2018-05-16T10:04:38.355Z,1009.94
2018-05-16T10:06:38.038Z,1009.95
2018-05-16T10:07:38.057Z,1009.96
2018-05-16T10:08:38.260Z,1009.98
2018-05-16T10:09:38.380Z,1009.97
2018-05-16T10:10:38.673Z,1009.99
2018-05-16T10:11:38.258Z,1010.02
2018-05-16T10:12:38.655Z,1010.00
2018-05-16T10:13:38.692Z,1010.01
2018-05-16T10:14:38.329Z,1010.04
2018-05-16T10:15:38.117Z,1010.02
2018-05-16T10:16:38.050Z,1010.00
2018-05-16T10:17:38.168Z,1010.07
2018-05-16T10:18:38.095Z,1010.13
2018-05-16T10:19:38.183Z,1010.09
2018-05-16T10:20:38.303Z,1010.12
2018-05-16T10:21:39.816Z,1010.12
2018-05-16T10:22:38.357Z,1010.13
2018-05-16T10:23:38.383Z,1010.13
2018-05-16T10:24:38.466Z,1010.13
2018-05-16T10:25:37.849Z,1010.15
2018-05-16T10:26:38.309Z,1010.15
2018-05-16T10:27:38.129Z,1010.15
2018-05-16T10:28:38.366Z,1010.19
2018-05-16T10:29:38.090Z,1010.14
2018-05-16T10:30:38.106Z,1010.17
2018-05-16T10:31:38.355Z,1010.14
2018-05-16T10:32:38.075Z,1010.15
2018-05-16T10:33:38.334Z,1010.12
2018-05-16T10:34:38.419Z,1010.11
2018-05-16T10:35:38.649Z,1010.12
2018-05-16T10:36:37.746Z,1010.09
2018-05-16T10:37:37.848Z,1010.12
2018-05-16T10:38:38.043Z,1010.12
2018-05-16T10:39:37.803Z,1010.09
2018-05-16T10:40:38.275Z,1010.10
2018-05-16T10:41:38.307Z,1010.08
2018-05-16T10:42:38.093Z,1010.07
2018-05-16T10:43:38.371Z,1010.10
2018-05-16T10:44:38.600Z,1010.11
2018-05-16T10:45:37.514Z,1010.11
2018-05-16T10:46:38.055Z,1010.12
2018-05-16T10:47:38.313Z,1010.09
2018-05-16T10:48:38.322Z,1010.06
2018-05-16T10:49:38.216Z,1010.13
2018-05-16T10:50:38.621Z,1010.12
2018-05-16T10:51:37.780Z,1010.13
2018-05-16T10:52:38.654Z,1010.16
2018-05-16T10:53:38.290Z,1010.10
2018-05-16T10:54:38.361Z,1010.07
2018-05-16T10:55:38.810Z,1010.07
2018-05-16T10:56:38.390Z,1010.11
2018-05-16T10:57:37.707Z,1010.06
2018-05-16T10:58:38.621Z,1010.02
2018-05-16T10:59:38.323Z,1010.06
2018-05-16T11:00:38.109Z,1010.06
2018-05-16T11:01:38.093Z,1010.05
2018-05-16T11:02:38.359Z,1010.05
2018-05-16T11:03:38.323Z,1010.00
2018-05-16T11:04:38.393Z,1009.98
2018-05-16T11:05:38.289Z,1009.99
2018-05-16T11:06:38.767Z,1009.98
2018-05-16T11:07:38.153Z,1009.99
2018-05-16T11:08:38.615Z,1010.01
2018-05-16T11:09:38.289Z,1010.00
2018-05-16T11:10:38.129Z,1009.98
2018-05-16T11:11:38.295Z,1010.06
2018-05-16T11:12:38.356Z,1009.99
2018-05-16T11:13:38.620Z,1009.98
2018-05-16T11:14:38.631Z,1010.01
2018-05-16T11:15:38.604Z,1010.01
2018-05-16T11:16:38.551Z,1010.01
2018-05-16T11:17:38.138Z,1009.95
2018-05-16T11:18:38.291Z,1009.95
2018-05-16T11:19:38.832Z,1009.94
2018-05-16T11:20:38.780Z,1009.92
2018-05-16T11:21:38.289Z,1009.96
2018-05-16T11:22:38.297Z,1009.92
2018-05-16T11:23:38.367Z,1009.92
2018-05-16T11:24:38.269Z,1009.85
2018-05-16T11:25:38.808Z,1009.89
2018-05-16T11:26:38.456Z,1009.85
2018-05-16T11:27:38.037Z,1009.88
2018-05-16T11:28:38.293Z,1009.85
2018-05-16T11:29:38.300Z,1009.88
2018-05-16T11:30:38.406Z,1009.92
2018-05-16T11:31:38.652Z,1009.92
2018-05-16T11:32:38.202Z,1009.94
2018-05-16T11:33:38.643Z,1009.88
2018-05-16T11:34:38.303Z,1009.91
2018-05-16T11:35:38.299Z,1009.90
2018-05-16T11:37:37.899Z,1009.93
2018-05-16T11:38:38.342Z,1009.91
2018-05-16T11:39:40.224Z,1009.96
2018-05-16T11:40:38.322Z,1009.91
2018-05-16T11:41:38.328Z,1009.92
2018-05-16T11:42:39.008Z,1009.86
2018-05-16T11:43:38.841Z,1009.95
2018-05-16T11:44:38.108Z,1010.01
2018-05-16T11:45:38.957Z,1010.02
2018-05-16T11:46:38.380Z,1010.04
2018-05-16T11:47:38.304Z,1010.02
2018-05-16T11:48:38.927Z,1010.02
2018-05-16T11:49:38.846Z,1009.99
2018-05-16T11:50:38.847Z,1010.02
2018-05-16T11:51:38.469Z,1010.01
2018-05-16T11:52:38.352Z,1010.02
2018-05-16T11:53:40.335Z,1010.01
2018-05-16T11:54:40.137Z,1009.97
2018-05-16T11:55:38.699Z,1009.99
2018-05-16T11:56:38.222Z,1009.98
2018-05-16T11:57:39.184Z,1010.00
2018-05-16T11:58:39.203Z,1009.98
2018-05-16T11:59:38.409Z,1009.96
2018-05-16T12:00:38.390Z,1009.96
2018-05-16T12:01:38.932Z,1010.04
2018-05-16T12:02:39.253Z,1010.01
2018-05-16T12:03:38.425Z,1010.00
2018-05-16T12:04:38.833Z,1010.09
2018-05-16T12:05:38.043Z,1010.04
2018-05-16T12:06:40.444Z,1010.08
2018-05-16T12:07:38.963Z,1010.00
2018-05-16T12:08:38.884Z,1010.06
2018-05-16T12:09:39.086Z,1010.07
2018-05-16T12:10:39.178Z,1010.05
2018-05-16T12:11:39.181Z,1010.01